sensor_id;sensor_type;location;lat;lon;timestamp;P1;durP1;ratioP1;P2;durP2;ratioP2
3911;SDS011;1971;51.778;10.330;2023-02-28T00:00:40;0.87;;;0.87;;
3911;SDS011;1971;51.778;10.330;2023-02-28T00:03:10;2.87;;;1.00;;
3911;SDS011;1971;51.778;10.330;2023-02-28T00:05:43;1.10;;;0.73;;
3911;SDS011;1971;51.778;10.330;2023-02-28T00:08:13;0.90;;;0.90;;
3911;SDS011;1971;51.778;10.330;2023-02-28T00:10:43;0.70;;;0.70;;
3911;SDS011;1971;51.778;10.330;2023-02-28T00:13:13;1.47;;;0.80;;
3911;SDS011;1971;51.778;10.330;2023-02-28T00:15:46;1.07;;;0.70;;
3911;SDS011;1971;51.778;10.330;2023-02-28T00:18:16;1.23;;;1.07;;
3911;SDS011;1971;51.778;10.330;2023-02-28T00:20:46;0.87;;;0.57;;
3911;SDS011;1971;51.778;10.330;2023-02-28T00:23:16;1.10;;;1.10;;
3911;SDS011;1971;51.778;10.330;2023-02-28T00:25:46;1.00;;;0.73;;
3911;SDS011;1971;51.778;10.330;2023-02-28T00:28:15;0.80;;;0.80;;
3911;SDS011;1971;51.778;10.330;2023-02-28T00:30:48;0.60;;;0.60;;
3911;SDS011;1971;51.778;10.330;2023-02-28T00:33:18;1.20;;;1.10;;
3911;SDS011;1971;51.778;10.330;2023-02-28T00:35:48;1.73;;;1.27;;
3911;SDS011;1971;51.778;10.330;2023-02-28T00:38:18;1.50;;;0.90;;
3911;SDS011;1971;51.778;10.330;2023-02-28T00:40:48;1.30;;;0.87;;
3911;SDS011;1971;51.778;10.330;2023-02-28T00:43:18;0.83;;;0.80;;
3911;SDS011;1971;51.778;10.330;2023-02-28T00:45:51;1.50;;;0.80;;
3911;SDS011;1971;51.778;10.330;2023-02-28T00:48:20;0.60;;;0.60;;
3911;SDS011;1971;51.778;10.330;2023-02-28T00:50:51;1.37;;;0.80;;
3911;SDS011;1971;51.778;10.330;2023-02-28T00:53:22;1.07;;;0.70;;
3911;SDS011;1971;51.778;10.330;2023-02-28T00:55:52;0.83;;;0.80;;
3911;SDS011;1971;51.778;10.330;2023-02-28T00:58:22;2.07;;;1.00;;
3911;SDS011;1971;51.778;10.330;2023-02-28T01:00:55;0.83;;;0.83;;
3911;SDS011;1971;51.778;10.330;2023-02-28T01:03:25;1.03;;;0.80;;
3911;SDS011;1971;51.778;10.330;2023-02-28T01:05:55;2.97;;;1.30;;
3911;SDS011;1971;51.778;10.330;2023-02-28T01:08:25;1.77;;;0.93;;
3911;SDS011;1971;51.778;10.330;2023-02-28T01:10:55;0.90;;;0.90;;
3911;SDS011;1971;51.778;10.330;2023-02-28T01:13:24;2.10;;;1.40;;
3911;SDS011;1971;51.778;10.330;2023-02-28T01:15:57;1.40;;;1.30;;
3911;SDS011;1971;51.778;10.330;2023-02-28T01:18:28;0.83;;;0.80;;
3911;SDS011;1971;51.778;10.330;2023-02-28T01:21:02;2.00;;;0.90;;
3911;SDS011;1971;51.778;10.330;2023-02-28T01:23:33;0.80;;;0.80;;
3911;SDS011;1971;51.778;10.330;2023-02-28T01:26:04;1.17;;;0.60;;
3911;SDS011;1971;51.778;10.330;2023-02-28T01:28:38;1.13;;;1.03;;
3911;SDS011;1971;51.778;10.330;2023-02-28T01:31:11;0.80;;;0.80;;
3911;SDS011;1971;51.778;10.330;2023-02-28T01:33:41;0.80;;;0.80;;
3911;SDS011;1971;51.778;10.330;2023-02-28T01:36:12;0.80;;;0.80;;
3911;SDS011;1971;51.778;10.330;2023-02-28T01:38:44;0.60;;;0.60;;
3911;SDS011;1971;51.778;10.330;2023-02-28T01:41:16;1.00;;;0.90;;
3911;SDS011;1971;51.778;10.330;2023-02-28T01:44:01;0.70;;;0.70;;
3911;SDS011;1971;51.778;10.330;2023-02-28T01:46:36;1.53;;;0.80;;
3911;SDS011;1971;51.778;10.330;2023-02-28T01:49:07;0.80;;;0.70;;
3911;SDS011;1971;51.778;10.330;2023-02-28T01:51:44;1.07;;;0.97;;
3911;SDS011;1971;51.778;10.330;2023-02-28T01:54:18;1.00;;;0.60;;
3911;SDS011;1971;51.778;10.330;2023-02-28T01:56:52;0.90;;;0.80;;
3911;SDS011;1971;51.778;10.330;2023-02-28T01:59:27;2.20;;;0.87;;
3911;SDS011;1971;51.778;10.330;2023-02-28T02:02:03;1.60;;;0.60;;
3911;SDS011;1971;51.778;10.330;2023-02-28T02:04:35;1.37;;;0.70;;
3911;SDS011;1971;51.778;10.330;2023-02-28T02:07:08;0.77;;;0.70;;
3911;SDS011;1971;51.778;10.330;2023-02-28T02:09:43;0.80;;;0.80;;
3911;SDS011;1971;51.778;10.330;2023-02-28T02:12:15;1.03;;;0.70;;
3911;SDS011;1971;51.778;10.330;2023-02-28T02:14:58;0.90;;;0.90;;
3911;SDS011;1971;51.778;10.330;2023-02-28T02:17:38;0.90;;;0.90;;
3911;SDS011;1971;51.778;10.330;2023-02-28T02:29:22;1.10;;;1.00;;
3911;SDS011;1971;51.778;10.330;2023-02-28T02:32:16;0.90;;;0.77;;
3911;SDS011;1971;51.778;10.330;2023-02-28T02:35:01;0.87;;;0.87;;
3911;SDS011;1971;51.778;10.330;2023-02-28T02:37:40;1.20;;;1.10;;
3911;SDS011;1971;51.778;10.330;2023-02-28T02:40:16;0.60;;;0.50;;
3911;SDS011;1971;51.778;10.330;2023-02-28T02:42:50;0.90;;;0.70;;
3911;SDS011;1971;51.778;10.330;2023-02-28T02:45:28;1.47;;;0.90;;
3911;SDS011;1971;51.778;10.330;2023-02-28T02:50:41;1.47;;;1.10;;
3911;SDS011;1971;51.778;10.330;2023-02-28T02:53:13;0.67;;;0.67;;
3911;SDS011;1971;51.778;10.330;2023-02-28T02:55:47;0.67;;;0.63;;
3911;SDS011;1971;51.778;10.330;2023-02-28T02:58:23;0.80;;;0.80;;
3911;SDS011;1971;51.778;10.330;2023-02-28T03:00:57;1.03;;;0.73;;
3911;SDS011;1971;51.778;10.330;2023-02-28T03:03:30;0.90;;;0.90;;
3911;SDS011;1971;51.778;10.330;2023-02-28T03:06:05;0.83;;;0.60;;
3911;SDS011;1971;51.778;10.330;2023-02-28T03:08:37;0.83;;;0.83;;
3911;SDS011;1971;51.778;10.330;2023-02-28T03:11:11;4.47;;;0.90;;
3911;SDS011;1971;51.778;10.330;2023-02-28T03:16:45;0.97;;;0.80;;
3911;SDS011;1971;51.778;10.330;2023-02-28T03:19:47;0.87;;;0.87;;
3911;SDS011;1971;51.778;10.330;2023-02-28T03:22:51;1.67;;;0.90;;
3911;SDS011;1971;51.778;10.330;2023-02-28T03:25:29;0.77;;;0.77;;
3911;SDS011;1971;51.778;10.330;2023-02-28T03:28:05;1.63;;;0.80;;
3911;SDS011;1971;51.778;10.330;2023-02-28T03:30:42;1.00;;;0.93;;
3911;SDS011;1971;51.778;10.330;2023-02-28T03:33:21;0.80;;;0.80;;
3911;SDS011;1971;51.778;10.330;2023-02-28T03:35:54;0.80;;;0.80;;
3911;SDS011;1971;51.778;10.330;2023-02-28T03:38:30;1.00;;;1.00;;
3911;SDS011;1971;51.778;10.330;2023-02-28T03:41:05;0.80;;;0.80;;
3911;SDS011;1971;51.778;10.330;2023-02-28T03:43:41;0.93;;;0.93;;
3911;SDS011;1971;51.778;10.330;2023-02-28T03:46:18;1.77;;;1.10;;
3911;SDS011;1971;51.778;10.330;2023-02-28T03:48:53;1.47;;;1.37;;
3911;SDS011;1971;51.778;10.330;2023-02-28T03:51:29;0.87;;;0.80;;
3911;SDS011;1971;51.778;10.330;2023-02-28T03:54:05;5.60;;;0.87;;
3911;SDS011;1971;51.778;10.330;2023-02-28T03:56:41;1.37;;;1.27;;
3911;SDS011;1971;51.778;10.330;2023-02-28T03:59:18;1.03;;;1.03;;
3911;SDS011;1971;51.778;10.330;2023-02-28T04:01:53;1.20;;;1.00;;
3911;SDS011;1971;51.778;10.330;2023-02-28T04:04:25;2.93;;;1.10;;
3911;SDS011;1971;51.778;10.330;2023-02-28T04:07:00;1.23;;;0.93;;
3911;SDS011;1971;51.778;10.330;2023-02-28T04:09:34;1.47;;;1.33;;
3911;SDS011;1971;51.778;10.330;2023-02-28T04:12:04;1.57;;;1.47;;
3911;SDS011;1971;51.778;10.330;2023-02-28T04:14:35;1.10;;;1.10;;
3911;SDS011;1971;51.778;10.330;2023-02-28T04:17:05;1.33;;;1.23;;
3911;SDS011;1971;51.778;10.330;2023-02-28T04:19:35;1.63;;;1.20;;
3911;SDS011;1971;51.778;10.330;2023-02-28T04:22:05;1.50;;;1.13;;
3911;SDS011;1971;51.778;10.330;2023-02-28T04:24:38;1.97;;;1.37;;
3911;SDS011;1971;51.778;10.330;2023-02-28T04:27:08;1.37;;;0.97;;
3911;SDS011;1971;51.778;10.330;2023-02-28T04:29:39;1.23;;;0.90;;
3911;SDS011;1971;51.778;10.330;2023-02-28T04:32:11;1.20;;;1.10;;
3911;SDS011;1971;51.778;10.330;2023-02-28T04:34:41;1.50;;;1.40;;
3911;SDS011;1971;51.778;10.330;2023-02-28T04:37:11;1.70;;;1.60;;
3911;SDS011;1971;51.778;10.330;2023-02-28T04:39:43;1.60;;;1.50;;
3911;SDS011;1971;51.778;10.330;2023-02-28T04:42:14;1.20;;;1.03;;
3911;SDS011;1971;51.778;10.330;2023-02-28T04:44:44;1.57;;;1.30;;
3911;SDS011;1971;51.778;10.330;2023-02-28T04:47:14;1.20;;;1.20;;
3911;SDS011;1971;51.778;10.330;2023-02-28T04:49:45;1.47;;;1.33;;
3911;SDS011;1971;51.778;10.330;2023-02-28T04:52:15;1.90;;;1.23;;
3911;SDS011;1971;51.778;10.330;2023-02-28T04:54:48;1.77;;;1.67;;
3911;SDS011;1971;51.778;10.330;2023-02-28T04:57:19;2.23;;;1.30;;
3911;SDS011;1971;51.778;10.330;2023-02-28T04:59:49;1.83;;;1.70;;
3911;SDS011;1971;51.778;10.330;2023-02-28T05:02:19;1.30;;;1.20;;
3911;SDS011;1971;51.778;10.330;2023-02-28T05:04:50;1.00;;;0.90;;
3911;SDS011;1971;51.778;10.330;2023-02-28T05:07:20;1.13;;;1.13;;
3911;SDS011;1971;51.778;10.330;2023-02-28T05:09:53;1.80;;;1.70;;
3911;SDS011;1971;51.778;10.330;2023-02-28T05:12:23;2.10;;;2.00;;
3911;SDS011;1971;51.778;10.330;2023-02-28T05:14:53;1.37;;;1.27;;
3911;SDS011;1971;51.778;10.330;2023-02-28T05:17:23;2.07;;;1.40;;
3911;SDS011;1971;51.778;10.330;2023-02-28T05:19:53;1.30;;;1.20;;
3911;SDS011;1971;51.778;10.330;2023-02-28T05:22:35;2.00;;;1.30;;
3911;SDS011;1971;51.778;10.330;2023-02-28T05:25:08;2.30;;;1.20;;
3911;SDS011;1971;51.778;10.330;2023-02-28T05:27:41;1.20;;;1.20;;
3911;SDS011;1971;51.778;10.330;2023-02-28T05:30:11;1.73;;;1.50;;
3911;SDS011;1971;51.778;10.330;2023-02-28T05:32:42;1.20;;;1.10;;
3911;SDS011;1971;51.778;10.330;2023-02-28T05:35:12;1.27;;;1.17;;
3911;SDS011;1971;51.778;10.330;2023-02-28T05:37:42;1.30;;;1.20;;
3911;SDS011;1971;51.778;10.330;2023-02-28T05:40:14;1.97;;;1.30;;
3911;SDS011;1971;51.778;10.330;2023-02-28T05:42:46;2.07;;;1.90;;
3911;SDS011;1971;51.778;10.330;2023-02-28T05:45:19;1.43;;;1.30;;
3911;SDS011;1971;51.778;10.330;2023-02-28T05:47:48;1.23;;;1.13;;
3911;SDS011;1971;51.778;10.330;2023-02-28T05:50:22;2.40;;;1.70;;
3911;SDS011;1971;51.778;10.330;2023-02-28T05:52:52;1.30;;;1.20;;
3911;SDS011;1971;51.778;10.330;2023-02-28T05:55:24;1.40;;;1.30;;
3911;SDS011;1971;51.778;10.330;2023-02-28T05:57:54;2.37;;;1.90;;
3911;SDS011;1971;51.778;10.330;2023-02-28T06:00:25;2.23;;;1.60;;
3911;SDS011;1971;51.778;10.330;2023-02-28T06:02:55;2.30;;;2.10;;
3911;SDS011;1971;51.778;10.330;2023-02-28T06:05:28;1.40;;;1.30;;
3911;SDS011;1971;51.778;10.330;2023-02-28T06:07:58;2.50;;;1.47;;
3911;SDS011;1971;51.778;10.330;2023-02-28T06:10:30;1.77;;;1.37;;
3911;SDS011;1971;51.778;10.330;2023-02-28T06:13:00;1.63;;;1.53;;
3911;SDS011;1971;51.778;10.330;2023-02-28T06:15:31;2.43;;;2.33;;
3911;SDS011;1971;51.778;10.330;2023-02-28T06:18:02;2.87;;;1.80;;
3911;SDS011;1971;51.778;10.330;2023-02-28T06:20:32;2.60;;;2.13;;
3911;SDS011;1971;51.778;10.330;2023-02-28T06:23:02;2.30;;;2.10;;
3911;SDS011;1971;51.778;10.330;2023-02-28T06:25:35;1.87;;;1.77;;
3911;SDS011;1971;51.778;10.330;2023-02-28T06:28:05;1.80;;;1.40;;
3911;SDS011;1971;51.778;10.330;2023-02-28T06:30:36;1.90;;;1.27;;
3911;SDS011;1971;51.778;10.330;2023-02-28T06:33:06;1.63;;;1.53;;
3911;SDS011;1971;51.778;10.330;2023-02-28T06:35:36;2.40;;;2.20;;
3911;SDS011;1971;51.778;10.330;2023-02-28T06:38:06;2.63;;;2.33;;
3911;SDS011;1971;51.778;10.330;2023-02-28T06:40:39;2.40;;;1.90;;
3911;SDS011;1971;51.778;10.330;2023-02-28T06:43:10;2.13;;;1.93;;
3911;SDS011;1971;51.778;10.330;2023-02-28T06:45:41;2.23;;;1.93;;
3911;SDS011;1971;51.778;10.330;2023-02-28T06:48:12;2.83;;;2.67;;
3911;SDS011;1971;51.778;10.330;2023-02-28T06:50:42;2.30;;;2.07;;
3911;SDS011;1971;51.778;10.330;2023-02-28T06:53:13;2.37;;;2.13;;
3911;SDS011;1971;51.778;10.330;2023-02-28T06:55:46;4.87;;;2.33;;
3911;SDS011;1971;51.778;10.330;2023-02-28T06:58:15;2.40;;;2.20;;
3911;SDS011;1971;51.778;10.330;2023-02-28T07:00:50;1.73;;;1.63;;
3911;SDS011;1971;51.778;10.330;2023-02-28T07:03:20;2.47;;;2.27;;
3911;SDS011;1971;51.778;10.330;2023-02-28T07:05:53;2.20;;;2.00;;
3911;SDS011;1971;51.778;10.330;2023-02-28T07:08:24;2.53;;;1.90;;
3911;SDS011;1971;51.778;10.330;2023-02-28T07:10:57;3.40;;;2.63;;
3911;SDS011;1971;51.778;10.330;2023-02-28T07:13:27;1.80;;;1.70;;
3911;SDS011;1971;51.778;10.330;2023-02-28T07:15:58;2.30;;;2.13;;
3911;SDS011;1971;51.778;10.330;2023-02-28T07:18:30;5.90;;;5.27;;
3911;SDS011;1971;51.778;10.330;2023-02-28T07:21:01;8.60;;;7.70;;
3911;SDS011;1971;51.778;10.330;2023-02-28T07:23:31;6.07;;;5.23;;
3911;SDS011;1971;51.778;10.330;2023-02-28T07:26:04;4.70;;;4.20;;
3911;SDS011;1971;51.778;10.330;2023-02-28T07:28:38;4.00;;;3.13;;
3911;SDS011;1971;51.778;10.330;2023-02-28T07:31:08;4.77;;;4.10;;
3911;SDS011;1971;51.778;10.330;2023-02-28T07:33:40;5.20;;;4.67;;
3911;SDS011;1971;51.778;10.330;2023-02-28T07:36:11;7.17;;;4.10;;
3911;SDS011;1971;51.778;10.330;2023-02-28T07:38:45;5.13;;;4.67;;
3911;SDS011;1971;51.778;10.330;2023-02-28T07:41:20;5.17;;;4.67;;
3911;SDS011;1971;51.778;10.330;2023-02-28T07:43:54;5.03;;;4.50;;
3911;SDS011;1971;51.778;10.330;2023-02-28T07:46:26;6.23;;;5.63;;
3911;SDS011;1971;51.778;10.330;2023-02-28T07:49:02;4.20;;;3.80;;
3911;SDS011;1971;51.778;10.330;2023-02-28T07:51:33;3.83;;;3.50;;
3911;SDS011;1971;51.778;10.330;2023-02-28T07:54:03;4.00;;;3.40;;
3911;SDS011;1971;51.778;10.330;2023-02-28T07:56:36;4.13;;;3.83;;
3911;SDS011;1971;51.778;10.330;2023-02-28T07:59:06;3.37;;;3.07;;
3911;SDS011;1971;51.778;10.330;2023-02-28T08:01:36;4.67;;;2.87;;
3911;SDS011;1971;51.778;10.330;2023-02-28T08:04:06;3.37;;;3.07;;
3911;SDS011;1971;51.778;10.330;2023-02-28T08:06:36;8.03;;;2.77;;
3911;SDS011;1971;51.778;10.330;2023-02-28T08:09:06;3.43;;;2.83;;
3911;SDS011;1971;51.778;10.330;2023-02-28T08:11:38;3.17;;;2.97;;
3911;SDS011;1971;51.778;10.330;2023-02-28T08:14:08;3.07;;;2.73;;
3911;SDS011;1971;51.778;10.330;2023-02-28T08:16:38;4.70;;;3.70;;
3911;SDS011;1971;51.778;10.330;2023-02-28T08:19:09;3.43;;;3.13;;
3911;SDS011;1971;51.778;10.330;2023-02-28T08:21:39;3.70;;;2.80;;
3911;SDS011;1971;51.778;10.330;2023-02-28T08:24:09;3.10;;;2.90;;
3911;SDS011;1971;51.778;10.330;2023-02-28T08:26:42;4.03;;;2.57;;
3911;SDS011;1971;51.778;10.330;2023-02-28T08:29:12;3.30;;;3.00;;
3911;SDS011;1971;51.778;10.330;2023-02-28T08:31:42;3.33;;;3.13;;
3911;SDS011;1971;51.778;10.330;2023-02-28T08:34:13;3.73;;;3.40;;
3911;SDS011;1971;51.778;10.330;2023-02-28T08:36:44;3.87;;;2.87;;
3911;SDS011;1971;51.778;10.330;2023-02-28T08:39:14;2.17;;;1.97;;
3911;SDS011;1971;51.778;10.330;2023-02-28T08:41:49;2.07;;;1.87;;
3911;SDS011;1971;51.778;10.330;2023-02-28T08:44:32;1.73;;;1.63;;
3911;SDS011;1971;51.778;10.330;2023-02-28T08:47:03;2.00;;;1.90;;
3911;SDS011;1971;51.778;10.330;2023-02-28T08:49:33;2.07;;;1.87;;
3911;SDS011;1971;51.778;10.330;2023-02-28T08:52:04;2.30;;;2.20;;
3911;SDS011;1971;51.778;10.330;2023-02-28T08:54:34;2.10;;;1.90;;
3911;SDS011;1971;51.778;10.330;2023-02-28T08:57:07;2.07;;;1.97;;
3911;SDS011;1971;51.778;10.330;2023-02-28T08:59:37;2.17;;;1.80;;
3911;SDS011;1971;51.778;10.330;2023-02-28T09:02:08;1.33;;;1.23;;
3911;SDS011;1971;51.778;10.330;2023-02-28T09:04:41;2.57;;;1.60;;
3911;SDS011;1971;51.778;10.330;2023-02-28T09:07:11;4.73;;;1.97;;
3911;SDS011;1971;51.778;10.330;2023-02-28T09:09:42;2.73;;;1.90;;
3911;SDS011;1971;51.778;10.330;2023-02-28T09:12:26;2.40;;;2.20;;
3911;SDS011;1971;51.778;10.330;2023-02-28T09:14:56;3.07;;;2.47;;
3911;SDS011;1971;51.778;10.330;2023-02-28T09:17:26;2.70;;;1.90;;
3911;SDS011;1971;51.778;10.330;2023-02-28T09:19:57;2.87;;;2.67;;
3911;SDS011;1971;51.778;10.330;2023-02-28T09:22:27;5.13;;;2.23;;
3911;SDS011;1971;51.778;10.330;2023-02-28T09:24:57;4.07;;;2.10;;
3911;SDS011;1971;51.778;10.330;2023-02-28T09:27:29;4.00;;;1.87;;
3911;SDS011;1971;51.778;10.330;2023-02-28T09:30:00;3.10;;;2.00;;
3911;SDS011;1971;51.778;10.330;2023-02-28T09:32:30;2.17;;;1.90;;
3911;SDS011;1971;51.778;10.330;2023-02-28T09:35:00;1.80;;;1.70;;
3911;SDS011;1971;51.778;10.330;2023-02-28T09:37:30;2.33;;;2.13;;
3911;SDS011;1971;51.778;10.330;2023-02-28T09:39:59;1.93;;;1.73;;
3911;SDS011;1971;51.778;10.330;2023-02-28T09:42:33;3.40;;;1.93;;
3911;SDS011;1971;51.778;10.330;2023-02-28T09:45:05;1.90;;;1.40;;
3911;SDS011;1971;51.778;10.330;2023-02-28T09:47:43;1.60;;;1.50;;
3911;SDS011;1971;51.778;10.330;2023-02-28T09:50:17;1.63;;;1.53;;
3911;SDS011;1971;51.778;10.330;2023-02-28T09:52:59;1.93;;;1.63;;
3911;SDS011;1971;51.778;10.330;2023-02-28T09:55:36;2.13;;;1.90;;
3911;SDS011;1971;51.778;10.330;2023-02-28T09:58:17;2.00;;;1.73;;
3911;SDS011;1971;51.778;10.330;2023-02-28T10:00:54;2.10;;;1.90;;
3911;SDS011;1971;51.778;10.330;2023-02-28T10:03:30;4.63;;;1.83;;
3911;SDS011;1971;51.778;10.330;2023-02-28T10:06:06;5.90;;;2.80;;
3911;SDS011;1971;51.778;10.330;2023-02-28T10:08:40;1.70;;;1.60;;
3911;SDS011;1971;51.778;10.330;2023-02-28T10:11:17;5.73;;;2.23;;
3911;SDS011;1971;51.778;10.330;2023-02-28T10:13:53;2.00;;;1.90;;
3911;SDS011;1971;51.778;10.330;2023-02-28T10:16:29;1.70;;;1.60;;
3911;SDS011;1971;51.778;10.330;2023-02-28T10:19:04;1.70;;;1.60;;
3911;SDS011;1971;51.778;10.330;2023-02-28T10:21:39;1.60;;;1.50;;
3911;SDS011;1971;51.778;10.330;2023-02-28T10:24:16;1.80;;;1.63;;
3911;SDS011;1971;51.778;10.330;2023-02-28T10:26:50;1.53;;;1.40;;
3911;SDS011;1971;51.778;10.330;2023-02-28T10:29:25;1.23;;;1.20;;
3911;SDS011;1971;51.778;10.330;2023-02-28T10:31:56;1.80;;;1.30;;
3911;SDS011;1971;51.778;10.330;2023-02-28T10:34:26;2.50;;;1.83;;
3911;SDS011;1971;51.778;10.330;2023-02-28T10:36:56;2.90;;;1.90;;
3911;SDS011;1971;51.778;10.330;2023-02-28T10:39:35;1.50;;;1.40;;
3911;SDS011;1971;51.778;10.330;2023-02-28T10:42:18;1.73;;;1.63;;
3911;SDS011;1971;51.778;10.330;2023-02-28T10:45:09;2.93;;;2.60;;
3911;SDS011;1971;51.778;10.330;2023-02-28T10:47:48;2.30;;;1.60;;
3911;SDS011;1971;51.778;10.330;2023-02-28T10:50:29;2.10;;;1.53;;
3911;SDS011;1971;51.778;10.330;2023-02-28T10:53:16;1.70;;;1.60;;
3911;SDS011;1971;51.778;10.330;2023-02-28T10:56:04;2.60;;;1.60;;
3911;SDS011;1971;51.778;10.330;2023-02-28T10:58:44;1.97;;;1.87;;
3911;SDS011;1971;51.778;10.330;2023-02-28T11:01:23;1.47;;;1.37;;
3911;SDS011;1971;51.778;10.330;2023-02-28T11:04:03;1.57;;;1.40;;
3911;SDS011;1971;51.778;10.330;2023-02-28T11:06:45;1.73;;;1.63;;
3911;SDS011;1971;51.778;10.330;2023-02-28T11:09:18;1.60;;;1.50;;
3911;SDS011;1971;51.778;10.330;2023-02-28T11:11:52;2.00;;;1.53;;
3911;SDS011;1971;51.778;10.330;2023-02-28T11:14:23;2.50;;;1.60;;
3911;SDS011;1971;51.778;10.330;2023-02-28T11:16:58;2.57;;;2.47;;
3911;SDS011;1971;51.778;10.330;2023-02-28T11:19:44;2.27;;;1.90;;
3911;SDS011;1971;51.778;10.330;2023-02-28T11:22:17;2.50;;;2.20;;
3911;SDS011;1971;51.778;10.330;2023-02-28T11:24:50;2.13;;;1.90;;
3911;SDS011;1971;51.778;10.330;2023-02-28T11:27:26;2.03;;;1.93;;
3911;SDS011;1971;51.778;10.330;2023-02-28T11:33:14;2.33;;;2.13;;
3911;SDS011;1971;51.778;10.330;2023-02-28T11:35:51;1.40;;;1.30;;
3911;SDS011;1971;51.778;10.330;2023-02-28T11:38:25;2.50;;;2.30;;
3911;SDS011;1971;51.778;10.330;2023-02-28T11:41:01;1.80;;;1.70;;
3911;SDS011;1971;51.778;10.330;2023-02-28T11:43:41;2.20;;;2.00;;
3911;SDS011;1971;51.778;10.330;2023-02-28T11:46:24;3.03;;;2.73;;
3911;SDS011;1971;51.778;10.330;2023-02-28T11:49:06;3.10;;;2.50;;
3911;SDS011;1971;51.778;10.330;2023-02-28T11:51:51;3.63;;;2.53;;
3911;SDS011;1971;51.778;10.330;2023-02-28T11:54:35;3.00;;;2.77;;
3911;SDS011;1971;51.778;10.330;2023-02-28T11:57:35;2.37;;;2.10;;
3911;SDS011;1971;51.778;10.330;2023-02-28T12:00:25;2.37;;;2.17;;
3911;SDS011;1971;51.778;10.330;2023-02-28T12:03:10;2.47;;;2.27;;
3911;SDS011;1971;51.778;10.330;2023-02-28T12:05:52;5.93;;;2.30;;
3911;SDS011;1971;51.778;10.330;2023-02-28T12:08:35;2.50;;;2.30;;
3911;SDS011;1971;51.778;10.330;2023-02-28T12:11:19;2.80;;;2.60;;
3911;SDS011;1971;51.778;10.330;2023-02-28T12:14:14;3.40;;;2.60;;
3911;SDS011;1971;51.778;10.330;2023-02-28T12:16:57;2.60;;;2.40;;
3911;SDS011;1971;51.778;10.330;2023-02-28T12:19:35;2.40;;;2.20;;
3911;SDS011;1971;51.778;10.330;2023-02-28T12:22:29;1.90;;;1.80;;
3911;SDS011;1971;51.778;10.330;2023-02-28T12:28:10;3.00;;;2.80;;
3911;SDS011;1971;51.778;10.330;2023-02-28T12:30:45;5.20;;;3.57;;
3911;SDS011;1971;51.778;10.330;2023-02-28T12:33:22;2.90;;;2.70;;
3911;SDS011;1971;51.778;10.330;2023-02-28T12:35:58;2.40;;;2.20;;
3911;SDS011;1971;51.778;10.330;2023-02-28T12:38:34;2.57;;;2.37;;
3911;SDS011;1971;51.778;10.330;2023-02-28T12:41:10;3.10;;;2.87;;
3911;SDS011;1971;51.778;10.330;2023-02-28T12:43:43;3.37;;;2.80;;
3911;SDS011;1971;51.778;10.330;2023-02-28T12:46:17;2.90;;;2.70;;
3911;SDS011;1971;51.778;10.330;2023-02-28T12:48:52;2.67;;;2.03;;
3911;SDS011;1971;51.778;10.330;2023-02-28T12:51:25;3.07;;;2.77;;
3911;SDS011;1971;51.778;10.330;2023-02-28T12:54:02;2.80;;;2.60;;
3911;SDS011;1971;51.778;10.330;2023-02-28T12:56:43;3.90;;;3.00;;
3911;SDS011;1971;51.778;10.330;2023-02-28T12:59:19;3.60;;;3.30;;
3911;SDS011;1971;51.778;10.330;2023-02-28T13:05:01;3.70;;;2.47;;
3911;SDS011;1971;51.778;10.330;2023-02-28T13:11:07;3.77;;;3.47;;
3911;SDS011;1971;51.778;10.330;2023-02-28T13:14:00;3.37;;;3.07;;
3911;SDS011;1971;51.778;10.330;2023-02-28T13:19:24;2.87;;;2.50;;
3911;SDS011;1971;51.778;10.330;2023-02-28T13:21:55;5.23;;;4.10;;
3911;SDS011;1971;51.778;10.330;2023-02-28T13:24:40;3.30;;;3.00;;
3911;SDS011;1971;51.778;10.330;2023-02-28T13:33:25;4.00;;;3.60;;
3911;SDS011;1971;51.778;10.330;2023-02-28T13:36:07;4.83;;;3.73;;
3911;SDS011;1971;51.778;10.330;2023-02-28T13:38:39;3.80;;;3.50;;
3911;SDS011;1971;51.778;10.330;2023-02-28T13:44:26;3.60;;;3.30;;
3911;SDS011;1971;51.778;10.330;2023-02-28T13:49:51;4.37;;;4.07;;
3911;SDS011;1971;51.778;10.330;2023-02-28T13:52:22;3.93;;;3.00;;
3911;SDS011;1971;51.778;10.330;2023-02-28T13:54:58;4.33;;;3.80;;
3911;SDS011;1971;51.778;10.330;2023-02-28T13:57:53;5.37;;;3.73;;
3911;SDS011;1971;51.778;10.330;2023-02-28T14:00:40;3.50;;;3.20;;
3911;SDS011;1971;51.778;10.330;2023-02-28T14:03:26;5.50;;;3.50;;
3911;SDS011;1971;51.778;10.330;2023-02-28T14:06:14;4.80;;;3.63;;
3911;SDS011;1971;51.778;10.330;2023-02-28T14:08:54;4.23;;;3.57;;
3911;SDS011;1971;51.778;10.330;2023-02-28T14:11:30;4.07;;;3.47;;
3911;SDS011;1971;51.778;10.330;2023-02-28T14:14:03;3.77;;;3.47;;
3911;SDS011;1971;51.778;10.330;2023-02-28T14:16:41;4.37;;;3.40;;
3911;SDS011;1971;51.778;10.330;2023-02-28T14:19:19;3.80;;;3.40;;
3911;SDS011;1971;51.778;10.330;2023-02-28T14:21:56;3.10;;;2.83;;
3911;SDS011;1971;51.778;10.330;2023-02-28T14:24:51;3.97;;;3.50;;
3911;SDS011;1971;51.778;10.330;2023-02-28T14:27:40;3.87;;;3.50;;
3911;SDS011;1971;51.778;10.330;2023-02-28T14:30:35;3.07;;;2.87;;
3911;SDS011;1971;51.778;10.330;2023-02-28T14:33:26;3.10;;;2.80;;
3911;SDS011;1971;51.778;10.330;2023-02-28T14:36:05;3.20;;;3.00;;
3911;SDS011;1971;51.778;10.330;2023-02-28T14:38:42;3.87;;;3.57;;
3911;SDS011;1971;51.778;10.330;2023-02-28T14:41:21;3.43;;;3.13;;
3911;SDS011;1971;51.778;10.330;2023-02-28T14:43:56;3.67;;;3.30;;
3911;SDS011;1971;51.778;10.330;2023-02-28T14:46:28;5.10;;;3.37;;
3911;SDS011;1971;51.778;10.330;2023-02-28T14:49:09;3.93;;;3.63;;
3911;SDS011;1971;51.778;10.330;2023-02-28T14:51:45;4.50;;;4.10;;
3911;SDS011;1971;51.778;10.330;2023-02-28T14:54:16;4.70;;;3.97;;
3911;SDS011;1971;51.778;10.330;2023-02-28T14:56:52;4.40;;;4.00;;
3911;SDS011;1971;51.778;10.330;2023-02-28T14:59:31;3.77;;;3.10;;
3911;SDS011;1971;51.778;10.330;2023-02-28T15:02:15;4.17;;;3.87;;
3911;SDS011;1971;51.778;10.330;2023-02-28T15:04:56;5.97;;;4.30;;
3911;SDS011;1971;51.778;10.330;2023-02-28T15:07:27;5.53;;;4.00;;
3911;SDS011;1971;51.778;10.330;2023-02-28T15:10:07;4.20;;;3.80;;
3911;SDS011;1971;51.778;10.330;2023-02-28T15:12:39;4.13;;;3.60;;
3911;SDS011;1971;51.778;10.330;2023-02-28T15:15:14;4.20;;;3.63;;
3911;SDS011;1971;51.778;10.330;2023-02-28T15:17:45;9.27;;;5.33;;
3911;SDS011;1971;51.778;10.330;2023-02-28T15:20:21;5.23;;;4.67;;
3911;SDS011;1971;51.778;10.330;2023-02-28T15:22:53;4.80;;;4.07;;
3911;SDS011;1971;51.778;10.330;2023-02-28T15:25:26;4.60;;;3.93;;
3911;SDS011;1971;51.778;10.330;2023-02-28T15:27:56;4.27;;;3.87;;
3911;SDS011;1971;51.778;10.330;2023-02-28T15:30:27;8.30;;;4.97;;
3911;SDS011;1971;51.778;10.330;2023-02-28T15:33:03;4.03;;;3.50;;
3911;SDS011;1971;51.778;10.330;2023-02-28T15:35:41;5.40;;;4.33;;
3911;SDS011;1971;51.778;10.330;2023-02-28T15:38:13;4.03;;;3.57;;
3911;SDS011;1971;51.778;10.330;2023-02-28T15:40:46;5.00;;;4.60;;
3911;SDS011;1971;51.778;10.330;2023-02-28T15:43:24;4.20;;;3.90;;
3911;SDS011;1971;51.778;10.330;2023-02-28T15:45:57;4.63;;;4.23;;
3911;SDS011;1971;51.778;10.330;2023-02-28T15:48:29;3.83;;;3.53;;
3911;SDS011;1971;51.778;10.330;2023-02-28T15:51:08;4.63;;;3.70;;
3911;SDS011;1971;51.778;10.330;2023-02-28T15:53:47;6.90;;;5.00;;
3911;SDS011;1971;51.778;10.330;2023-02-28T15:56:22;5.57;;;4.90;;
3911;SDS011;1971;51.778;10.330;2023-02-28T15:58:53;5.13;;;3.93;;
3911;SDS011;1971;51.778;10.330;2023-02-28T16:01:25;4.43;;;4.00;;
3911;SDS011;1971;51.778;10.330;2023-02-28T16:03:59;4.63;;;4.13;;
3911;SDS011;1971;51.778;10.330;2023-02-28T16:06:40;5.20;;;4.70;;
3911;SDS011;1971;51.778;10.330;2023-02-28T16:09:12;4.30;;;3.90;;
3911;SDS011;1971;51.778;10.330;2023-02-28T16:11:44;4.57;;;4.17;;
3911;SDS011;1971;51.778;10.330;2023-02-28T16:14:16;4.67;;;4.27;;
3911;SDS011;1971;51.778;10.330;2023-02-28T16:16:49;6.03;;;5.30;;
3911;SDS011;1971;51.778;10.330;2023-02-28T16:19:21;6.03;;;4.77;;
3911;SDS011;1971;51.778;10.330;2023-02-28T16:21:54;4.30;;;3.97;;
3911;SDS011;1971;51.778;10.330;2023-02-28T16:24:24;4.20;;;3.80;;
3911;SDS011;1971;51.778;10.330;2023-02-28T16:26:54;5.03;;;4.53;;